createdAt,value
2023-05-14T00:00:37.180Z,52.84
2023-05-14T00:01:37.214Z,52.84
2023-05-14T00:02:37.343Z,52.74
2023-05-14T00:03:37.355Z,52.74
2023-05-14T00:04:37.290Z,52.74
2023-05-14T00:05:37.249Z,52.84
2023-05-14T00:06:37.272Z,52.84
2023-05-14T00:07:37.287Z,52.84
2023-05-14T00:08:37.313Z,52.74
2023-05-14T00:09:37.331Z,52.84
2023-05-14T00:10:37.344Z,52.84
2023-05-14T00:11:37.347Z,52.94
2023-05-14T00:12:37.353Z,52.94
2023-05-14T00:13:37.350Z,52.84
2023-05-14T00:14:37.352Z,52.84
2023-05-14T00:15:37.486Z,52.84
2023-05-14T00:16:37.635Z,52.94
2023-05-14T00:17:37.469Z,52.84
2023-05-14T00:18:37.473Z,52.94
2023-05-14T00:19:37.434Z,52.94
2023-05-14T00:20:37.460Z,52.94
2023-05-14T00:21:37.451Z,52.94
2023-05-14T00:22:37.442Z,52.94
2023-05-14T00:23:37.422Z,52.94
2023-05-14T00:24:37.454Z,52.94
2023-05-14T00:25:37.533Z,52.94
2023-05-14T00:26:37.494Z,52.94
2023-05-14T00:27:37.460Z,52.94
2023-05-14T00:28:37.482Z,52.94
2023-05-14T00:29:37.514Z,53.05
2023-05-14T00:30:37.536Z,52.94
2023-05-14T00:31:37.570Z,52.94
2023-05-14T00:32:37.557Z,53.05
2023-05-14T00:33:37.559Z,52.94
2023-05-14T00:34:37.568Z,53.05
2023-05-14T00:35:37.584Z,53.05
2023-05-14T00:36:37.621Z,53.05
2023-05-14T00:37:37.746Z,53.05
2023-05-14T00:38:37.641Z,52.94
2023-05-14T00:39:37.656Z,53.05
2023-05-14T00:40:37.674Z,52.94
2023-05-14T00:41:37.681Z,53.05
2023-05-14T00:42:37.715Z,53.05
2023-05-14T00:43:37.699Z,53.05
2023-05-14T00:44:37.703Z,53.05
2023-05-14T00:45:37.723Z,53.14
2023-05-14T00:46:37.805Z,53.05
2023-05-14T00:47:37.879Z,53.05
2023-05-14T00:48:37.750Z,53.14
2023-05-14T00:49:37.801Z,53.14
2023-05-14T00:50:37.785Z,53.14
2023-05-14T00:51:37.801Z,53.05
2023-05-14T00:52:37.809Z,53.05
2023-05-14T00:53:37.824Z,53.14
2023-05-14T00:54:37.854Z,53.05
2023-05-14T00:55:37.899Z,53.05
2023-05-14T00:56:37.925Z,53.05
2023-05-14T00:57:37.911Z,53.05
2023-05-14T00:58:37.909Z,53.05
2023-05-14T00:59:37.924Z,53.17
2023-05-14T01:00:37.995Z,53.17
2023-05-14T01:01:37.937Z,53.17
2023-05-14T01:02:38.045Z,53.14
2023-05-14T01:03:38.006Z,53.17
2023-05-14T01:04:38.012Z,53.17
2023-05-14T01:05:38.046Z,53.17
2023-05-14T01:06:37.984Z,53.17
2023-05-14T01:07:37.999Z,53.17
2023-05-14T01:08:38.021Z,53.27
2023-05-14T01:09:38.046Z,53.27
2023-05-14T01:10:38.061Z,53.27
2023-05-14T01:11:38.072Z,53.27
2023-05-14T01:12:38.061Z,53.27
2023-05-14T01:13:38.087Z,53.17
2023-05-14T01:14:38.108Z,53.17
2023-05-14T01:15:38.121Z,53.27
2023-05-14T01:16:38.138Z,53.27
2023-05-14T01:17:38.149Z,53.27
2023-05-14T01:18:38.191Z,53.27
2023-05-14T01:19:38.173Z,53.27
2023-05-14T01:20:38.180Z,53.27
2023-05-14T01:21:38.229Z,53.27
2023-05-14T01:22:38.216Z,53.27
2023-05-14T01:23:38.176Z,53.27
2023-05-14T01:24:38.181Z,53.27
2023-05-14T01:25:38.200Z,53.37
2023-05-14T01:26:38.242Z,53.27
2023-05-14T01:27:38.231Z,53.37
2023-05-14T01:28:38.241Z,53.37
2023-05-14T01:29:38.258Z,53.27
2023-05-14T01:30:38.318Z,53.27
2023-05-14T01:31:38.322Z,53.37
2023-05-14T01:32:38.344Z,53.37
2023-05-14T01:33:38.333Z,53.37
2023-05-14T01:34:38.350Z,53.27
2023-05-14T01:35:38.364Z,53.27
2023-05-14T01:36:38.380Z,53.27
2023-05-14T01:37:38.400Z,53.37
2023-05-14T01:38:38.365Z,53.37
2023-05-14T01:39:38.347Z,53.37
2023-05-14T01:40:38.375Z,53.37
2023-05-14T01:41:38.397Z,53.37
2023-05-14T01:42:38.382Z,53.37
2023-05-14T01:43:38.413Z,53.47
2023-05-14T01:44:38.440Z,53.37
2023-05-14T01:45:38.458Z,53.37
2023-05-14T01:46:38.506Z,53.37
2023-05-14T01:47:38.492Z,53.37
2023-05-14T01:48:38.475Z,53.27
2023-05-14T01:49:38.494Z,53.37
2023-05-14T01:50:38.523Z,53.47
2023-05-14T01:51:38.553Z,53.37
2023-05-14T01:52:38.572Z,53.37
2023-05-14T01:53:38.573Z,53.37
2023-05-14T01:54:38.572Z,53.37
2023-05-14T01:55:38.598Z,53.37
2023-05-14T01:56:38.671Z,53.37
2023-05-14T01:57:38.655Z,53.37
2023-05-14T01:58:38.669Z,53.37
2023-05-14T01:59:38.675Z,53.37
2023-05-14T02:00:38.695Z,53.37
2023-05-14T02:01:38.813Z,53.37
2023-05-14T02:02:38.720Z,53.47
2023-05-14T02:03:38.775Z,53.47
2023-05-14T02:04:38.757Z,53.37
2023-05-14T02:05:38.778Z,53.47
2023-05-14T02:06:39.078Z,53.37
2023-05-14T02:07:38.786Z,53.37
2023-05-14T02:08:38.799Z,53.47
2023-05-14T02:09:38.846Z,53.37
2023-05-14T02:10:38.848Z,53.47
2023-05-14T02:11:38.874Z,53.47
2023-05-14T02:12:38.903Z,53.39
2023-05-14T02:13:39.117Z,53.50
2023-05-14T02:14:38.895Z,53.47
2023-05-14T02:15:38.923Z,53.50
2023-05-14T02:16:38.934Z,53.50
2023-05-14T02:17:38.951Z,53.47
2023-05-14T02:18:39.001Z,53.50
2023-05-14T02:19:38.935Z,53.50
2023-05-14T02:20:38.894Z,53.50
2023-05-14T02:21:38.906Z,53.50
2023-05-14T02:22:38.934Z,53.59
2023-05-14T02:23:41.874Z,53.50
2023-05-14T02:24:38.968Z,53.50
2023-05-14T02:25:39.013Z,53.50
2023-05-14T02:26:39.036Z,53.50
2023-05-14T02:27:39.055Z,53.50
2023-05-14T02:28:39.057Z,53.39
2023-05-14T02:29:39.074Z,53.50
2023-05-14T02:30:39.088Z,53.50
2023-05-14T02:31:39.147Z,53.59
2023-05-14T02:32:39.184Z,53.59
2023-05-14T02:33:39.254Z,53.50
2023-05-14T02:34:39.175Z,53.50
2023-05-14T02:35:39.157Z,53.50
2023-05-14T02:36:39.196Z,53.50
2023-05-14T02:37:39.216Z,53.50
2023-05-14T02:38:39.235Z,53.50
2023-05-14T02:39:39.247Z,53.50
2023-05-14T02:40:39.251Z,53.59
2023-05-14T02:41:39.302Z,53.59
2023-05-14T02:42:39.265Z,53.50
2023-05-14T02:43:39.246Z,53.59
2023-05-14T02:44:39.272Z,53.50
2023-05-14T02:45:39.285Z,53.59
2023-05-14T02:46:39.355Z,53.50
2023-05-14T02:47:39.358Z,53.59
2023-05-14T02:48:39.332Z,53.50
2023-05-14T02:49:39.355Z,53.50
2023-05-14T02:50:39.377Z,53.50
2023-05-14T02:51:39.410Z,53.50
2023-05-14T02:52:39.425Z,53.59
2023-05-14T02:53:39.440Z,53.59
2023-05-14T02:54:39.430Z,53.59
2023-05-14T02:55:39.432Z,53.59
2023-05-14T02:56:39.447Z,53.50
2023-05-14T02:57:39.462Z,53.50
2023-05-14T02:58:39.431Z,53.50
2023-05-14T02:59:39.459Z,53.50
2023-05-14T03:00:39.538Z,53.50
2023-05-14T03:01:39.482Z,53.59
2023-05-14T03:02:39.581Z,53.59
2023-05-14T03:03:39.486Z,53.50
2023-05-14T03:04:39.496Z,53.59
2023-05-14T03:05:39.511Z,53.50
2023-05-14T03:06:39.546Z,53.59
2023-05-14T03:07:39.520Z,53.50
2023-05-14T03:08:39.572Z,53.50
2023-05-14T03:09:39.552Z,53.59
2023-05-14T03:10:39.557Z,53.59
2023-05-14T03:11:39.565Z,53.50
2023-05-14T03:12:39.540Z,53.50
2023-05-14T03:13:39.608Z,53.50
2023-05-14T03:14:39.517Z,53.59
2023-05-14T03:15:39.534Z,53.59
2023-05-14T03:16:39.569Z,53.50
2023-05-14T03:17:39.587Z,53.59
2023-05-14T03:18:39.613Z,53.59
2023-05-14T03:19:39.580Z,53.50
2023-05-14T03:20:39.586Z,53.59
2023-05-14T03:21:39.613Z,53.50
2023-05-14T03:22:39.650Z,53.50
2023-05-14T03:23:39.664Z,53.59
2023-05-14T03:24:39.685Z,53.50
2023-05-14T03:25:39.702Z,53.59
2023-05-14T03:26:39.751Z,53.59
2023-05-14T03:27:39.736Z,53.50
2023-05-14T03:28:39.754Z,53.50
2023-05-14T03:29:39.789Z,53.59
2023-05-14T03:30:39.768Z,53.59
2023-05-14T03:31:39.748Z,53.50
2023-05-14T03:32:39.783Z,53.59
2023-05-14T03:33:39.777Z,53.59
2023-05-14T03:34:39.811Z,53.50
2023-05-14T03:35:39.793Z,53.50
2023-05-14T03:36:39.810Z,53.50
2023-05-14T03:37:39.831Z,53.50
2023-05-14T03:38:39.838Z,53.50
2023-05-14T03:39:39.867Z,53.39
2023-05-14T03:40:39.871Z,53.50
2023-05-14T03:41:39.902Z,53.39
2023-05-14T03:42:39.904Z,53.50
2023-05-14T03:43:39.908Z,53.50
2023-05-14T03:44:39.932Z,53.50
2023-05-14T03:45:39.987Z,53.39
2023-05-14T03:46:39.977Z,53.39
2023-05-14T03:47:40.023Z,53.39
2023-05-14T03:48:40.029Z,53.39
2023-05-14T03:49:40.016Z,53.39
2023-05-14T03:50:40.039Z,53.39
2023-05-14T03:51:40.061Z,53.39
2023-05-14T03:52:40.070Z,53.30
2023-05-14T03:53:40.089Z,53.39
2023-05-14T03:54:40.096Z,53.39
2023-05-14T03:55:40.116Z,53.39
2023-05-14T03:56:40.123Z,53.30
2023-05-14T03:57:40.161Z,53.39
2023-05-14T03:58:40.146Z,53.30
2023-05-14T03:59:40.165Z,53.19
2023-05-14T04:00:40.173Z,53.30
2023-05-14T04:01:40.215Z,53.19
2023-05-14T04:02:40.271Z,53.30
2023-05-14T04:03:40.342Z,53.30
2023-05-14T04:04:40.229Z,53.30
2023-05-14T04:05:40.203Z,53.19
2023-05-14T04:06:40.176Z,53.19
2023-05-14T04:07:40.194Z,53.17
2023-05-14T04:08:40.205Z,53.17
2023-05-14T04:09:40.219Z,53.17
2023-05-14T04:10:40.241Z,53.17
2023-05-14T04:11:40.268Z,53.17
2023-05-14T04:12:40.277Z,53.17
2023-05-14T04:13:40.288Z,53.07
2023-05-14T04:14:40.325Z,53.17
2023-05-14T04:15:40.341Z,53.07
2023-05-14T04:16:40.463Z,53.07
2023-05-14T04:17:40.446Z,53.17
2023-05-14T04:18:40.425Z,53.17
2023-05-14T04:19:40.382Z,52.97
2023-05-14T04:20:40.396Z,53.07
2023-05-14T04:21:40.445Z,53.07
2023-05-14T04:22:40.426Z,53.07
2023-05-14T04:23:40.453Z,52.97
2023-05-14T04:24:40.460Z,52.97
2023-05-14T04:25:40.490Z,53.07
2023-05-14T04:26:40.522Z,53.07
2023-05-14T04:27:40.501Z,52.97
2023-05-14T04:28:40.527Z,53.07
2023-05-14T04:29:40.493Z,52.97
2023-05-14T04:30:40.523Z,52.87
2023-05-14T04:31:40.571Z,52.97
2023-05-14T04:32:40.557Z,52.97
2023-05-14T04:33:40.543Z,52.97
2023-05-14T04:34:40.514Z,52.97
2023-05-14T04:35:40.522Z,52.87
2023-05-14T04:36:40.563Z,52.87
2023-05-14T04:37:40.605Z,52.77
2023-05-14T04:38:40.590Z,52.77
2023-05-14T04:39:40.714Z,52.77
2023-05-14T04:40:40.614Z,52.77
2023-05-14T04:41:40.623Z,52.77
2023-05-14T04:42:40.625Z,52.77
2023-05-14T04:43:40.647Z,52.67
2023-05-14T04:44:40.668Z,52.67
2023-05-14T04:45:40.718Z,52.67
2023-05-14T04:46:40.722Z,52.67
2023-05-14T04:47:40.707Z,52.67
2023-05-14T04:48:40.702Z,52.57
2023-05-14T04:49:40.736Z,52.57
2023-05-14T04:50:40.752Z,52.55
2023-05-14T04:51:40.785Z,52.55
2023-05-14T04:52:40.775Z,52.55
2023-05-14T04:53:40.816Z,52.44
2023-05-14T04:54:40.911Z,52.44
2023-05-14T04:55:40.849Z,52.44
2023-05-14T04:56:40.862Z,52.44
2023-05-14T04:57:40.888Z,52.34
2023-05-14T04:58:40.906Z,52.44
2023-05-14T04:59:40.889Z,52.44
2023-05-14T05:00:40.902Z,52.44
2023-05-14T05:01:41.031Z,52.44
2023-05-14T05:02:40.998Z,52.34
2023-05-14T05:03:40.981Z,52.24
2023-05-14T05:04:40.963Z,52.24
2023-05-14T05:05:41.005Z,52.24
2023-05-14T05:06:40.978Z,52.24
2023-05-14T05:07:41.000Z,52.24
2023-05-14T05:08:41.034Z,52.14
2023-05-14T05:09:41.004Z,52.14
2023-05-14T05:10:41.033Z,52.14
2023-05-14T05:11:41.064Z,52.14
2023-05-14T05:12:41.077Z,52.14
2023-05-14T05:13:41.101Z,52.14
2023-05-14T05:14:41.131Z,52.04
2023-05-14T05:15:41.154Z,52.04
2023-05-14T05:16:41.095Z,52.04
2023-05-14T05:17:41.152Z,52.04
2023-05-14T05:18:41.173Z,52.04
2023-05-14T05:19:44.015Z,52.04
2023-05-14T05:20:41.197Z,52.04
2023-05-14T05:21:41.264Z,51.94
2023-05-14T05:22:41.243Z,51.94
2023-05-14T05:23:41.264Z,51.94
2023-05-14T05:24:41.314Z,52.04
2023-05-14T05:25:41.296Z,51.92
2023-05-14T05:26:41.323Z,51.82
2023-05-14T05:27:41.333Z,51.94
2023-05-14T05:28:41.349Z,51.92
2023-05-14T05:29:41.408Z,51.82
2023-05-14T05:30:41.377Z,51.82
2023-05-14T05:31:41.435Z,51.82
2023-05-14T05:32:41.449Z,51.82
2023-05-14T05:33:41.419Z,51.82
2023-05-14T05:34:41.448Z,51.72
2023-05-14T05:35:41.466Z,51.72
2023-05-14T05:36:41.485Z,51.72
2023-05-14T05:37:41.526Z,51.72
2023-05-14T05:38:41.482Z,51.72
2023-05-14T05:39:41.517Z,51.72
2023-05-14T05:40:41.500Z,51.62
2023-05-14T05:41:41.529Z,51.62
2023-05-14T05:42:41.559Z,51.62
2023-05-14T05:43:41.527Z,51.62
2023-05-14T05:44:41.579Z,51.52
2023-05-14T05:45:41.625Z,51.52
2023-05-14T05:46:41.647Z,51.52
2023-05-14T05:47:41.860Z,51.42
2023-05-14T05:48:41.597Z,51.42
2023-05-14T05:49:41.629Z,51.39
2023-05-14T05:50:41.597Z,51.29
2023-05-14T05:51:41.621Z,51.29
2023-05-14T05:52:41.661Z,51.29
2023-05-14T05:53:41.679Z,51.29
2023-05-14T05:54:41.652Z,51.29
2023-05-14T05:55:41.665Z,51.29
2023-05-14T05:56:41.684Z,51.20
2023-05-14T05:57:41.701Z,51.20
2023-05-14T05:58:41.714Z,51.20
2023-05-14T05:59:41.756Z,51.20
2023-05-14T06:00:41.753Z,51.20
2023-05-14T06:01:41.794Z,51.09
2023-05-14T06:02:41.868Z,51.09
2023-05-14T06:03:41.785Z,51.09
2023-05-14T06:04:41.831Z,51.09
2023-05-14T06:05:41.989Z,51.09
2023-05-14T06:06:41.862Z,51.09
2023-05-14T06:07:41.882Z,51.09
2023-05-14T06:08:41.899Z,50.99
2023-05-14T06:09:42.006Z,50.99
2023-05-14T06:10:41.921Z,50.99
2023-05-14T06:11:41.926Z,50.99
2023-05-14T06:12:41.941Z,50.99
2023-05-14T06:13:41.948Z,50.89
2023-05-14T06:14:41.953Z,50.89
2023-05-14T06:15:41.976Z,50.89
2023-05-14T06:16:42.053Z,50.77
2023-05-14T06:17:42.019Z,50.77
2023-05-14T06:18:42.016Z,50.67
2023-05-14T06:19:42.022Z,50.67
2023-05-14T06:20:41.987Z,50.57
2023-05-14T06:21:42.028Z,50.57
2023-05-14T06:22:42.045Z,50.47
2023-05-14T06:23:42.092Z,50.47
2023-05-14T06:24:42.085Z,50.47
2023-05-14T06:25:42.092Z,50.37
2023-05-14T06:26:42.052Z,50.37
2023-05-14T06:27:42.081Z,50.35
2023-05-14T06:28:42.089Z,50.24
2023-05-14T06:29:42.114Z,50.24
2023-05-14T06:30:42.132Z,50.15
2023-05-14T06:31:42.179Z,50.15
2023-05-14T06:32:42.167Z,50.15
2023-05-14T06:33:42.178Z,50.24
2023-05-14T06:34:42.203Z,50.15
2023-05-14T06:35:42.185Z,50.15
2023-05-14T06:36:42.194Z,50.15
2023-05-14T06:37:42.199Z,50.15
2023-05-14T06:38:42.207Z,50.15
2023-05-14T06:39:42.221Z,50.15
2023-05-14T06:40:42.228Z,50.15
2023-05-14T06:41:42.258Z,50.04
2023-05-14T06:42:42.267Z,50.04
2023-05-14T06:43:42.297Z,50.04
2023-05-14T06:44:42.314Z,49.95
2023-05-14T06:45:42.330Z,49.95
2023-05-14T06:46:42.358Z,49.95
2023-05-14T06:47:42.394Z,49.82
2023-05-14T06:48:42.422Z,49.85
2023-05-14T06:49:42.450Z,49.82
2023-05-14T06:50:42.414Z,49.82
2023-05-14T06:51:42.426Z,49.72
2023-05-14T06:52:42.450Z,49.72
2023-05-14T06:53:42.465Z,49.62
2023-05-14T06:54:42.483Z,49.62
2023-05-14T06:55:42.484Z,49.62
2023-05-14T06:56:42.506Z,49.52
2023-05-14T06:57:42.533Z,49.52
2023-05-14T06:58:42.541Z,49.52
2023-05-14T06:59:42.569Z,49.42
2023-05-14T07:00:42.548Z,49.42
2023-05-14T07:01:42.603Z,49.42
2023-05-14T07:02:42.621Z,49.30
2023-05-14T07:03:42.611Z,49.30
2023-05-14T07:04:42.658Z,49.20
2023-05-14T07:05:42.695Z,49.20
2023-05-14T07:06:42.654Z,49.20
2023-05-14T07:07:42.684Z,49.20
2023-05-14T07:08:42.700Z,49.20
2023-05-14T07:09:42.724Z,49.20
2023-05-14T07:10:42.697Z,49.10
2023-05-14T07:11:42.718Z,49.10
2023-05-14T07:12:42.757Z,49.00
2023-05-14T07:13:42.819Z,49.00
2023-05-14T07:14:42.796Z,49.00
2023-05-14T07:15:42.783Z,48.88
2023-05-14T07:16:42.804Z,48.88
2023-05-14T07:17:42.772Z,48.88
2023-05-14T07:18:42.789Z,48.88
2023-05-14T07:19:42.779Z,48.88
2023-05-14T07:20:42.809Z,48.90
2023-05-14T07:21:42.831Z,49.00
2023-05-14T07:22:42.836Z,49.00
2023-05-14T07:23:42.850Z,49.10
2023-05-14T07:24:42.880Z,49.10
2023-05-14T07:25:42.903Z,49.10
2023-05-14T07:26:42.948Z,49.10
2023-05-14T07:27:42.963Z,49.20
2023-05-14T07:28:43.000Z,49.20
2023-05-14T07:29:43.030Z,49.20
2023-05-14T07:30:42.995Z,49.20
2023-05-14T07:31:43.123Z,49.20
2023-05-14T07:32:43.035Z,49.30
2023-05-14T07:33:43.020Z,49.30
2023-05-14T07:34:43.037Z,49.30
2023-05-14T07:35:43.064Z,49.30
2023-05-14T07:36:43.072Z,49.40
2023-05-14T07:37:43.086Z,49.30
2023-05-14T07:38:43.097Z,49.30
2023-05-14T07:39:43.145Z,49.30
2023-05-14T07:40:43.157Z,49.30
2023-05-14T07:41:43.184Z,49.30
2023-05-14T07:42:43.214Z,49.20
2023-05-14T07:43:43.239Z,49.10
2023-05-14T07:44:43.251Z,49.10
2023-05-14T07:45:43.279Z,49.10
2023-05-14T07:46:43.276Z,49.10
2023-05-14T07:47:43.455Z,49.00
2023-05-14T07:48:43.355Z,48.97
2023-05-14T07:49:43.310Z,48.88
2023-05-14T07:50:43.338Z,48.78
2023-05-14T07:51:43.353Z,48.68
2023-05-14T07:52:43.652Z,48.78
2023-05-14T07:53:43.399Z,48.78
2023-05-14T07:54:43.406Z,48.78
2023-05-14T07:55:43.422Z,48.78
2023-05-14T07:56:43.441Z,48.68
2023-05-14T07:57:43.484Z,48.68
2023-05-14T07:58:43.458Z,48.68
2023-05-14T07:59:43.488Z,48.78
2023-05-14T08:00:43.502Z,48.68
2023-05-14T08:01:43.582Z,48.68
2023-05-14T08:02:43.695Z,48.58
2023-05-14T08:03:43.650Z,48.58
2023-05-14T08:04:43.588Z,48.58
2023-05-14T08:05:43.625Z,48.58
2023-05-14T08:06:43.636Z,48.58
2023-05-14T08:07:43.664Z,48.48
2023-05-14T08:08:43.666Z,48.35
2023-05-14T08:09:43.689Z,48.35
2023-05-14T08:10:43.847Z,48.25
2023-05-14T08:11:43.730Z,48.25
2023-05-14T08:12:43.757Z,48.16
2023-05-14T08:13:43.762Z,48.05
2023-05-14T08:14:43.791Z,48.05
2023-05-14T08:15:43.806Z,48.03
2023-05-14T08:16:43.856Z,47.93
2023-05-14T08:17:43.883Z,47.74
2023-05-14T08:18:43.895Z,47.51
2023-05-14T08:19:43.886Z,47.31
2023-05-14T08:20:43.900Z,47.11
2023-05-14T08:21:43.896Z,47.11
2023-05-14T08:22:43.933Z,47.21
2023-05-14T08:23:43.934Z,47.21
2023-05-14T08:24:43.941Z,47.21
2023-05-14T08:25:43.967Z,47.31
2023-05-14T08:26:43.994Z,47.41
2023-05-14T08:27:44.005Z,47.31
2023-05-14T08:28:43.998Z,47.31
2023-05-14T08:29:44.013Z,47.21
2023-05-14T08:30:44.131Z,47.21
2023-05-14T08:31:44.176Z,47.11
2023-05-14T08:32:44.115Z,46.99
2023-05-14T08:33:44.095Z,46.99
2023-05-14T08:34:44.218Z,46.89
2023-05-14T08:35:44.080Z,46.99
2023-05-14T08:36:44.102Z,46.99
2023-05-14T08:37:44.132Z,47.09
2023-05-14T08:38:44.145Z,47.02
2023-05-14T08:39:44.129Z,47.11
2023-05-14T08:40:44.157Z,47.09
2023-05-14T08:41:44.163Z,46.99
2023-05-14T08:42:44.191Z,46.89
2023-05-14T08:43:44.215Z,46.79
2023-05-14T08:44:44.214Z,46.79
2023-05-14T08:45:44.228Z,46.69
2023-05-14T08:46:44.222Z,46.57
2023-05-14T08:47:44.300Z,46.57
2023-05-14T08:48:44.258Z,46.47
2023-05-14T08:49:44.250Z,46.47
2023-05-14T08:50:44.228Z,46.37
2023-05-14T08:51:44.235Z,46.37
2023-05-14T08:52:44.244Z,46.37
2023-05-14T08:53:44.277Z,46.37
2023-05-14T08:54:44.295Z,46.47
2023-05-14T08:55:44.318Z,46.37
2023-05-14T08:56:44.321Z,46.37
2023-05-14T08:57:44.353Z,46.37
2023-05-14T08:58:44.396Z,46.37
2023-05-14T08:59:44.383Z,46.47
2023-05-14T09:00:44.395Z,46.47
2023-05-14T09:01:44.476Z,46.47
2023-05-14T09:02:44.594Z,46.57
2023-05-14T09:03:44.523Z,46.59
2023-05-14T09:04:44.469Z,46.69
2023-05-14T09:05:44.519Z,46.79
2023-05-14T09:06:44.528Z,46.89
2023-05-14T09:07:44.557Z,46.99
2023-05-14T09:08:44.587Z,47.09
2023-05-14T09:09:44.564Z,47.11
2023-05-14T09:10:44.602Z,47.11
2023-05-14T09:11:44.608Z,47.11
2023-05-14T09:12:44.648Z,47.09
2023-05-14T09:13:44.673Z,46.99
2023-05-14T09:14:44.685Z,46.89
2023-05-14T09:15:44.712Z,46.79
2023-05-14T09:16:44.841Z,46.69
2023-05-14T09:17:44.857Z,46.57
2023-05-14T09:18:44.903Z,46.37
2023-05-14T09:19:44.810Z,46.27
2023-05-14T09:20:44.817Z,46.15
2023-05-14T09:21:44.848Z,46.05
2023-05-14T09:22:44.867Z,45.85
2023-05-14T09:23:44.871Z,45.75
2023-05-14T09:24:44.885Z,45.63
2023-05-14T09:25:44.903Z,45.53
2023-05-14T09:26:44.945Z,45.53
2023-05-14T09:27:44.900Z,45.53
2023-05-14T09:28:45.180Z,45.43
2023-05-14T09:29:44.943Z,45.33
2023-05-14T09:30:44.915Z,45.33
2023-05-14T09:31:44.954Z,45.23
2023-05-14T09:32:44.949Z,45.23
2023-05-14T09:33:44.958Z,45.23
2023-05-14T09:34:45.018Z,45.23
2023-05-14T09:35:44.987Z,45.33
2023-05-14T09:36:44.995Z,45.33
2023-05-14T09:37:45.036Z,45.33
2023-05-14T09:38:45.009Z,45.33
2023-05-14T09:39:45.025Z,45.33
2023-05-14T09:40:45.044Z,45.33
2023-05-14T09:41:45.066Z,45.33
2023-05-14T09:42:45.102Z,45.33
2023-05-14T09:43:45.125Z,45.43
2023-05-14T09:44:45.145Z,45.43
2023-05-14T09:45:45.153Z,45.53
2023-05-14T09:46:45.193Z,45.53
2023-05-14T09:47:45.634Z,45.53
2023-05-14T09:48:45.316Z,45.53
2023-05-14T09:49:45.225Z,45.53
2023-05-14T09:50:45.230Z,45.43
2023-05-14T09:51:45.269Z,45.43
2023-05-14T09:52:45.262Z,45.43
2023-05-14T09:53:45.334Z,45.43
2023-05-14T09:54:45.299Z,45.43
2023-05-14T09:55:45.305Z,45.53
2023-05-14T09:56:45.341Z,45.53
2023-05-14T09:57:45.312Z,45.53
2023-05-14T09:58:45.338Z,45.53
2023-05-14T09:59:45.315Z,45.63
2023-05-14T10:00:45.564Z,45.63
2023-05-14T10:01:45.425Z,45.65
2023-05-14T10:02:45.412Z,45.75
2023-05-14T10:03:45.438Z,45.85
2023-05-14T10:04:45.550Z,45.95
2023-05-14T10:05:45.419Z,45.95
2023-05-14T10:06:45.442Z,46.05
2023-05-14T10:07:45.458Z,46.05
2023-05-14T10:08:45.488Z,46.15
2023-05-14T10:09:45.535Z,46.05
2023-05-14T10:10:45.506Z,46.05
2023-05-14T10:11:45.485Z,46.05
2023-05-14T10:12:45.519Z,46.05
2023-05-14T10:13:45.524Z,45.95
2023-05-14T10:14:45.531Z,45.95
2023-05-14T10:15:45.578Z,45.85
2023-05-14T10:16:45.598Z,45.75
2023-05-14T10:17:45.602Z,45.75
2023-05-14T10:18:45.603Z,45.53
2023-05-14T10:19:45.576Z,45.53
2023-05-14T10:20:45.603Z,45.43
2023-05-14T10:21:45.573Z,45.33
2023-05-14T10:22:45.593Z,45.23
2023-05-14T10:23:45.605Z,45.11
2023-05-14T10:24:45.645Z,45.11
2023-05-14T10:25:45.701Z,45.01
2023-05-14T10:26:45.661Z,45.01
2023-05-14T10:27:45.681Z,44.92
2023-05-14T10:28:45.705Z,44.92
2023-05-14T10:29:45.689Z,44.71
2023-05-14T10:30:45.794Z,44.70
2023-05-14T10:31:45.775Z,44.59
2023-05-14T10:32:45.725Z,44.49
2023-05-14T10:33:45.726Z,44.40
2023-05-14T10:34:45.742Z,44.27
2023-05-14T10:35:45.814Z,44.18
2023-05-14T10:36:45.783Z,44.07
2023-05-14T10:37:45.811Z,44.07
2023-05-14T10:38:45.822Z,43.98
2023-05-14T10:39:45.855Z,43.88
2023-05-14T10:40:45.877Z,43.88
2023-05-14T10:41:45.923Z,43.88
2023-05-14T10:42:45.892Z,43.88
2023-05-14T10:43:45.930Z,43.98
2023-05-14T10:44:45.937Z,43.88
2023-05-14T10:45:45.968Z,43.98
2023-05-14T10:46:45.977Z,44.07
2023-05-14T10:47:46.212Z,43.98
2023-05-14T10:48:45.954Z,44.07
2023-05-14T10:49:45.986Z,44.07
2023-05-14T10:50:46.046Z,44.07
2023-05-14T10:51:46.097Z,44.18
2023-05-14T10:52:46.037Z,44.18
2023-05-14T10:53:46.013Z,44.20
2023-05-14T10:54:46.027Z,44.40
2023-05-14T10:55:46.046Z,44.49
2023-05-14T10:56:46.056Z,44.59
2023-05-14T10:57:46.152Z,44.59
2023-05-14T10:58:46.077Z,44.59
2023-05-14T10:59:46.112Z,44.59
2023-05-14T11:00:46.123Z,44.40
2023-05-14T11:01:46.177Z,44.40
2023-05-14T11:02:46.177Z,44.27
2023-05-14T11:03:46.363Z,44.18
2023-05-14T11:04:46.188Z,43.98
2023-05-14T11:05:46.193Z,43.88
2023-05-14T11:06:46.203Z,43.76
2023-05-14T11:07:46.225Z,43.66
2023-05-14T11:08:46.282Z,43.56
2023-05-14T11:09:46.237Z,43.46
2023-05-14T11:10:46.326Z,43.34
2023-05-14T11:11:46.248Z,43.14
2023-05-14T11:12:46.285Z,43.14
2023-05-14T11:13:46.299Z,43.04
2023-05-14T11:14:46.268Z,42.94
2023-05-14T11:15:46.296Z,43.46
2023-05-14T11:16:46.370Z,44.29
2023-05-14T11:17:46.384Z,44.81
2023-05-14T11:18:46.401Z,45.21
2023-05-14T11:19:46.345Z,45.43
2023-05-14T11:20:46.348Z,45.73
2023-05-14T11:21:46.431Z,45.85
2023-05-14T11:22:46.398Z,45.95
2023-05-14T11:23:46.412Z,46.05
2023-05-14T11:24:46.440Z,46.15
2023-05-14T11:25:46.470Z,46.25
2023-05-14T11:26:46.475Z,46.27
2023-05-14T11:27:46.502Z,46.37
2023-05-14T11:28:46.520Z,46.47
2023-05-14T11:29:46.540Z,46.47
2023-05-14T11:30:46.529Z,46.57
2023-05-14T11:31:46.543Z,46.67
2023-05-14T11:32:46.584Z,46.67
2023-05-14T11:33:46.540Z,46.77
2023-05-14T11:34:46.560Z,46.79
2023-05-14T11:35:46.591Z,46.89
2023-05-14T11:36:46.598Z,46.89
2023-05-14T11:37:46.651Z,46.89
2023-05-14T11:38:46.629Z,46.99
2023-05-14T11:39:46.661Z,46.99
2023-05-14T11:40:46.688Z,46.99
2023-05-14T11:41:46.707Z,47.09
2023-05-14T11:42:46.773Z,47.09
2023-05-14T11:43:46.738Z,47.09
2023-05-14T11:44:46.765Z,47.19
2023-05-14T11:45:46.820Z,47.19
2023-05-14T11:46:46.786Z,47.19
2023-05-14T11:47:46.915Z,47.19
2023-05-14T11:48:46.811Z,47.19
2023-05-14T11:49:46.827Z,47.19
2023-05-14T11:50:46.840Z,47.19
2023-05-14T11:51:46.845Z,47.29
2023-05-14T11:52:46.894Z,47.31
2023-05-14T11:53:46.878Z,47.31
2023-05-14T11:54:46.897Z,47.31
2023-05-14T11:55:46.907Z,47.41
2023-05-14T11:56:46.915Z,47.31
2023-05-14T11:57:46.959Z,47.41
2023-05-14T11:58:46.937Z,47.41
2023-05-14T11:59:46.946Z,47.41
2023-05-14T12:00:46.939Z,47.41
2023-05-14T12:01:48.065Z,47.41
2023-05-14T12:02:47.059Z,47.51
2023-05-14T12:03:47.022Z,47.41
2023-05-14T12:04:47.070Z,47.51
2023-05-14T12:05:46.977Z,47.51
2023-05-14T12:06:46.985Z,47.51
2023-05-14T12:07:47.037Z,47.51
2023-05-14T12:08:47.027Z,47.61
2023-05-14T12:09:47.047Z,47.61
2023-05-14T12:10:47.051Z,47.61
2023-05-14T12:11:47.060Z,47.61
2023-05-14T12:12:47.087Z,47.61
2023-05-14T12:13:47.076Z,47.61
2023-05-14T12:14:47.109Z,47.71
2023-05-14T12:15:47.175Z,47.51
2023-05-14T12:16:47.257Z,47.51
2023-05-14T12:17:47.194Z,47.31
2023-05-14T12:18:47.159Z,47.31
2023-05-14T12:19:47.134Z,47.41
2023-05-14T12:20:47.153Z,47.51
2023-05-14T12:21:47.178Z,47.51
2023-05-14T12:22:47.183Z,47.51
2023-05-14T12:23:47.205Z,47.51
2023-05-14T12:24:47.218Z,47.51
2023-05-14T12:25:47.252Z,47.21
2023-05-14T12:26:47.266Z,47.51
2023-05-14T12:27:47.280Z,47.61
2023-05-14T12:28:47.307Z,47.61
2023-05-14T12:29:47.313Z,47.61
2023-05-14T12:30:47.350Z,47.51
2023-05-14T12:31:47.436Z,47.53
2023-05-14T12:32:47.440Z,47.53
2023-05-14T12:33:47.389Z,47.53
2023-05-14T12:34:47.392Z,47.33
2023-05-14T12:35:47.417Z,47.24
2023-05-14T12:36:47.432Z,47.11
2023-05-14T12:37:47.478Z,47.11
2023-05-14T12:38:47.434Z,46.72
2023-05-14T12:39:47.486Z,46.91
2023-05-14T12:40:47.517Z,47.02
2023-05-14T12:41:47.497Z,47.11
2023-05-14T12:42:47.503Z,47.11
2023-05-14T12:43:47.501Z,47.21
2023-05-14T12:44:47.508Z,47.51
2023-05-14T12:45:47.493Z,47.21
2023-05-14T12:46:47.544Z,47.21
2023-05-14T12:47:47.622Z,47.24
2023-05-14T12:48:47.553Z,47.53
2023-05-14T12:49:47.597Z,47.53
2023-05-14T12:50:47.601Z,47.24
2023-05-14T12:51:47.626Z,47.24
2023-05-14T12:52:47.638Z,47.03